Orchard, TX (77464)

7:28 PM CDT on March 26, 2015 (GMT -0500)
Weston Lakes | | Change Station
CLOSE
Current Station
Personal Weather Station
Location: Fulshear, TX
Elevation: 108 ft
Nearby Weather Stations
Active Advisory: Flood Warning Active Notice: Public Information Statement

Elev 108 ft 29.65 °N, 95.93 °W | Updated 2 minutes ago

Partly Cloudy
Partly Cloudy
63.7 °F
Feels Like 63.7 °F
N
2.7
Wind Variable Wind from NNE

Today
High -- | Low -- °F
--% Chance of Precip.
Yesterday
High -- | Low -- °F
Precip. -- in
7:20 AM 7:38 PM
Waxing Crescent, 47% visible
Pressure 30.04 in
Visibility 10.0 miles
Clouds Clear
Dew Point 63 °F
Humidity 98%
Rainfall 0.00 in
Snow Depth Not available.
UV 0 out of 12
Pollen 9.00 out of 12
Air Quality Not available.
Flu Activity Not available.
METAR KTME 270015Z AUTO 01008KT 10SM CLR 17/10 A3004 RMK AO2

More Conditions Fewer Conditions

Pressure 30.04 in
Visibility 10.0 miles
Clouds Clear
Dew Point 63 °F
Humidity 98%
Rainfall 0.00 in
Snow Depth Not available.
UV 0 out of 12
Pollen 9.00 out of 12
Air Quality Not available.
Flu Activity Not available.
METAR KTME 270015Z AUTO 01008KT 10SM CLR 17/10 A3004 RMK AO2

More Conditions Fewer Conditions

10-Day Weather Forecast

Almanac

Astronomy

Mar. 26, 2015 Rise Set
Actual Time
Civil Twilight
Nautical Twilight
Astronomical Twilight
Moon
Length of Visible Light
Length of Day
Tomorrow will be .
, % of the Moon is Illuminated

Today's Extremes

State Highs State Lows

Community

WunderPhotos

Upload Photos

1,808,651 photos uploaded!

WunderBlogs® & News

Nearby

Air Quality

  Air Quality AQ Index Pollutant
Not available.

Snow Depth

Station Depth Elevation

Earthquake Activity

City Distance Mag. Time & Date
Minimum magnitude displayed is 2.5.

Coastal Water Temperatures

Place Temperature

Stations

Nearby Weather Stations

Station Location Temp. Windchill Dew Point Humidity Wind Precip. Elev Updated Type
                   
Flood Warning
Statement as of 2:24 PM CDT on March 26, 2015

The Flood Warning continues for
the San Bernard River near Boling
* until late tonight... or until the warning is canceled.
* At 2 PM Thursday the stage was 18.3 feet.
* Minor flooding is occurring.
* Flood stage is 18.0 feet.
* Forecast... the river is expected to fall to below flood stage overnight.
* At 18.0 feet... minor lowland flooding begins upstream from gage. Minor
backwater flooding up Peach Creek in Wharton County threatens lowlying areas.


Lat... Lon 2940 9592 2930 9584 2913 9566 2913 9577 2930 9595 2940 9605

                     flood observed forecast 12 PM
location stage stage day time Fri Sat sun Mon

San Bernard River
Boling 18 18.3 Thu 2 PM 15.8 12.7 10.6 8.9